createdAt,value
2018-07-07T00:00:54.942Z,19.40
2018-07-07T00:03:23.077Z,19.40
2018-07-07T00:05:51.222Z,19.30
2018-07-07T00:08:19.413Z,19.20
2018-07-07T00:10:55.494Z,19.20
2018-07-07T00:13:23.674Z,19.10
2018-07-07T00:15:51.826Z,19.10
2018-07-07T00:18:19.975Z,19.10
2018-07-07T00:20:48.122Z,19.10
2018-07-07T00:23:16.334Z,19.10
2018-07-07T00:25:44.479Z,19.10
2018-07-07T00:28:12.621Z,19.10
2018-07-07T00:30:40.801Z,19.10
2018-07-07T00:33:09.077Z,19.10
2018-07-07T00:35:37.229Z,19.10
2018-07-07T00:38:05.465Z,19.10
2018-07-07T00:40:33.634Z,19.00
2018-07-07T00:43:02.162Z,19.00
2018-07-07T00:45:30.361Z,19.00
2018-07-07T00:47:58.509Z,19.00
2018-07-07T00:50:26.696Z,19.00
2018-07-07T00:52:54.913Z,19.10
2018-07-07T00:55:23.061Z,19.00
2018-07-07T00:57:51.206Z,19.00
2018-07-07T01:00:19.359Z,19.00
2018-07-07T01:02:47.502Z,18.90
2018-07-07T01:05:27.085Z,18.90
2018-07-07T01:07:55.233Z,18.90
2018-07-07T01:10:23.438Z,18.90
2018-07-07T01:12:51.575Z,18.90
2018-07-07T01:15:19.707Z,18.90
2018-07-07T01:17:47.881Z,18.90
2018-07-07T01:20:16.303Z,18.90
2018-07-07T01:22:44.450Z,18.90
2018-07-07T01:25:12.586Z,18.90
2018-07-07T01:27:40.733Z,18.90
2018-07-07T01:30:08.922Z,18.90
2018-07-07T01:35:04.974Z,18.90
2018-07-07T01:37:33.787Z,18.90
2018-07-07T01:40:01.926Z,18.90
2018-07-07T01:42:30.077Z,18.90
2018-07-07T01:44:58.201Z,18.90
2018-07-07T01:47:26.341Z,18.90
2018-07-07T01:49:54.505Z,18.90
2018-07-07T01:52:22.722Z,18.90
2018-07-07T01:54:50.849Z,18.80
2018-07-07T01:57:19.010Z,18.80
2018-07-07T01:59:47.173Z,18.90
2018-07-07T02:04:43.286Z,18.90
2018-07-07T02:07:11.441Z,18.90
2018-07-07T02:09:39.629Z,18.90
2018-07-07T02:12:07.842Z,18.80
2018-07-07T02:14:36.013Z,18.80
2018-07-07T02:17:04.206Z,18.70
2018-07-07T02:22:00.293Z,18.60
2018-07-07T02:24:28.446Z,18.60
2018-07-07T02:26:56.592Z,18.60
2018-07-07T02:29:24.787Z,18.60
2018-07-07T02:31:52.949Z,18.60
2018-07-07T02:34:21.125Z,18.60
2018-07-07T02:36:49.262Z,18.60
2018-07-07T02:39:17.415Z,18.60
2018-07-07T02:41:46.506Z,18.60
2018-07-07T02:44:14.657Z,18.60
2018-07-07T02:46:42.802Z,18.50
2018-07-07T02:49:10.950Z,18.50
2018-07-07T02:51:39.099Z,18.50
2018-07-07T02:54:07.299Z,18.50
2018-07-07T02:56:35.627Z,18.50
2018-07-07T02:59:03.792Z,18.40
2018-07-07T03:01:31.937Z,18.40
2018-07-07T03:04:00.210Z,18.30
2018-07-07T03:06:28.361Z,18.30
2018-07-07T03:08:56.514Z,18.20
2018-07-07T03:11:24.653Z,18.20
2018-07-07T03:13:52.854Z,18.10
2018-07-07T03:16:21.014Z,18.10
2018-07-07T03:18:49.182Z,18.10
2018-07-07T03:21:17.322Z,18.00
2018-07-07T03:23:45.482Z,18.00
2018-07-07T03:26:13.661Z,18.00
2018-07-07T03:28:41.827Z,18.10
2018-07-07T03:31:10.078Z,18.10
2018-07-07T03:33:38.208Z,18.10
2018-07-07T03:36:06.537Z,18.10
2018-07-07T03:38:34.713Z,18.10
2018-07-07T03:41:02.873Z,18.10
2018-07-07T03:43:31.121Z,18.10
2018-07-07T03:45:59.293Z,18.10
2018-07-07T03:48:27.541Z,18.10
2018-07-07T03:50:55.710Z,18.10
2018-07-07T03:53:24.034Z,18.00
2018-07-07T03:55:52.262Z,18.00
2018-07-07T03:58:20.545Z,18.00
2018-07-07T04:00:48.697Z,18.00
2018-07-07T04:03:16.843Z,18.00
2018-07-07T04:05:45.130Z,18.00
2018-07-07T04:08:13.433Z,18.00
2018-07-07T04:10:41.590Z,18.00
2018-07-07T04:13:09.733Z,18.00
2018-07-07T04:15:37.885Z,18.00
2018-07-07T04:18:06.218Z,18.10
2018-07-07T04:20:34.418Z,18.00
2018-07-07T04:23:02.570Z,18.10
2018-07-07T04:25:30.725Z,18.10
2018-07-07T04:27:58.970Z,18.10
2018-07-07T04:30:27.130Z,18.20
2018-07-07T04:32:55.266Z,18.20
2018-07-07T04:35:23.418Z,18.20
2018-07-07T04:37:52.263Z,18.00
2018-07-07T04:40:20.446Z,18.00
2018-07-07T04:42:48.585Z,17.90
2018-07-07T04:45:16.742Z,17.80
2018-07-07T04:47:44.882Z,17.80
2018-07-07T04:50:13.100Z,17.70
2018-07-07T04:52:41.268Z,17.60
2018-07-07T04:55:09.418Z,17.60
2018-07-07T04:57:37.545Z,17.70
2018-07-07T05:00:05.728Z,17.80
2018-07-07T05:02:33.889Z,17.80
2018-07-07T05:05:02.026Z,17.90
2018-07-07T05:07:30.166Z,17.90
2018-07-07T05:09:58.418Z,17.90
2018-07-07T05:12:27.360Z,18.00
2018-07-07T05:14:55.514Z,18.00
2018-07-07T05:17:23.659Z,18.00
2018-07-07T05:19:51.825Z,18.00
2018-07-07T05:22:20.014Z,18.00
2018-07-07T05:24:48.193Z,18.10
2018-07-07T05:27:16.334Z,18.10
2018-07-07T05:29:44.462Z,18.20
2018-07-07T05:32:12.629Z,18.20
2018-07-07T05:34:40.754Z,18.20
2018-07-07T05:37:08.912Z,18.20
2018-07-07T05:39:37.033Z,18.20
2018-07-07T05:42:05.421Z,18.20
2018-07-07T05:44:33.630Z,18.20
2018-07-07T05:47:01.803Z,18.20
2018-07-07T05:49:29.937Z,18.20
2018-07-07T05:51:58.086Z,18.30
2018-07-07T05:54:26.334Z,18.30
2018-07-07T05:56:54.474Z,18.30
2018-07-07T05:59:22.605Z,18.30
2018-07-07T06:01:50.798Z,18.30
2018-07-07T06:04:18.966Z,18.30
2018-07-07T06:06:47.149Z,18.20
2018-07-07T06:09:15.280Z,18.30
2018-07-07T06:11:43.409Z,18.30
2018-07-07T06:14:11.567Z,18.30
2018-07-07T06:16:39.732Z,18.30
2018-07-07T06:19:07.932Z,18.30
2018-07-07T06:21:36.062Z,18.30
2018-07-07T06:24:04.251Z,18.40
2018-07-07T06:26:32.581Z,18.40
2018-07-07T06:29:00.674Z,18.50
2018-07-07T06:31:29.357Z,18.60
2018-07-07T06:33:57.538Z,18.60
2018-07-07T06:36:25.790Z,18.60
2018-07-07T06:38:53.957Z,18.60
2018-07-07T06:41:22.134Z,18.60
2018-07-07T06:43:50.287Z,18.70
2018-07-07T06:46:18.478Z,18.70
2018-07-07T06:48:47.833Z,18.70
2018-07-07T06:51:15.993Z,18.70
2018-07-07T06:53:44.218Z,18.70
2018-07-07T06:56:12.283Z,18.60
2018-07-07T06:58:40.430Z,18.60
2018-07-07T07:01:08.590Z,18.70
2018-07-07T07:03:36.739Z,18.80
2018-07-07T07:06:04.877Z,18.90
2018-07-07T07:08:33.062Z,18.90
2018-07-07T07:13:29.370Z,19.00
2018-07-07T07:15:57.518Z,19.00
2018-07-07T07:18:25.721Z,19.10
2018-07-07T07:20:53.946Z,19.20
2018-07-07T07:23:22.105Z,19.10
2018-07-07T07:25:50.245Z,19.30
2018-07-07T07:28:18.379Z,19.30
2018-07-07T07:30:46.553Z,19.40
2018-07-07T07:33:14.819Z,19.50
2018-07-07T07:35:42.954Z,19.50
2018-07-07T07:38:11.081Z,19.60
2018-07-07T07:40:39.246Z,19.60
2018-07-07T07:43:07.616Z,19.60
2018-07-07T07:45:35.887Z,19.60
2018-07-07T07:48:04.010Z,19.70
2018-07-07T07:50:32.151Z,19.80
2018-07-07T07:53:00.516Z,19.90
2018-07-07T07:55:28.686Z,20.00
2018-07-07T07:57:56.909Z,20.10
2018-07-07T08:00:25.080Z,20.40
2018-07-07T08:02:53.255Z,20.80
2018-07-07T08:05:21.470Z,21.20
2018-07-07T08:07:49.617Z,21.50
2018-07-07T08:10:18.088Z,21.70
2018-07-07T08:12:46.338Z,21.90
2018-07-07T08:15:14.616Z,22.00
2018-07-07T08:17:42.774Z,22.10
2018-07-07T08:20:10.918Z,22.10
2018-07-07T08:22:39.080Z,22.10
2018-07-07T08:25:07.193Z,22.20
2018-07-07T08:27:35.334Z,22.20
2018-07-07T08:30:03.477Z,22.30
2018-07-07T08:32:31.605Z,22.30
2018-07-07T08:34:59.734Z,22.40
2018-07-07T08:37:27.881Z,22.50
2018-07-07T08:39:56.014Z,22.50
2018-07-07T08:42:24.157Z,22.60
2018-07-07T08:44:52.289Z,22.60
2018-07-07T08:47:20.446Z,22.60
2018-07-07T08:49:48.566Z,22.70
2018-07-07T08:52:16.713Z,22.70
2018-07-07T08:54:44.845Z,22.80
2018-07-07T08:57:13.046Z,22.90
2018-07-07T08:59:41.318Z,22.90
2018-07-07T09:02:10.629Z,23.00
2018-07-07T09:04:38.882Z,23.10
2018-07-07T09:07:07.430Z,23.20
2018-07-07T09:09:35.670Z,23.20
2018-07-07T09:12:03.931Z,23.20
2018-07-07T09:14:33.306Z,23.20
2018-07-07T09:17:01.458Z,23.30
2018-07-07T09:19:30.645Z,23.50
2018-07-07T09:21:58.826Z,23.50
2018-07-07T09:24:26.960Z,23.50
2018-07-07T09:26:55.101Z,23.60
2018-07-07T09:29:23.233Z,23.60
2018-07-07T09:31:51.950Z,23.60
2018-07-07T09:34:20.083Z,23.70
2018-07-07T09:36:48.318Z,23.60
2018-07-07T09:39:16.505Z,23.70
2018-07-07T09:41:44.665Z,23.80
2018-07-07T09:44:12.838Z,23.90
2018-07-07T09:46:41.062Z,23.90
2018-07-07T09:49:09.238Z,24.00
2018-07-07T09:51:37.649Z,24.10
2018-07-07T09:54:06.023Z,24.20
2018-07-07T09:56:34.218Z,24.30
2018-07-07T09:59:02.588Z,24.40
2018-07-07T10:01:30.818Z,24.40
2018-07-07T10:03:59.042Z,24.40
2018-07-07T10:06:27.464Z,24.60
2018-07-07T10:08:56.641Z,24.60
2018-07-07T10:11:24.805Z,24.70
2018-07-07T10:13:52.965Z,24.70
2018-07-07T10:16:21.499Z,24.70
2018-07-07T10:18:49.639Z,24.70
2018-07-07T10:21:17.802Z,24.70
2018-07-07T10:23:45.969Z,24.80
2018-07-07T10:26:14.251Z,24.90
2018-07-07T10:28:42.386Z,25.00
2018-07-07T10:31:10.538Z,25.00
2018-07-07T10:33:38.729Z,25.00
2018-07-07T10:36:06.993Z,24.90
2018-07-07T10:38:35.248Z,24.80
2018-07-07T10:41:03.393Z,24.90
2018-07-07T10:43:31.584Z,24.80
2018-07-07T10:45:59.859Z,24.80
2018-07-07T10:48:27.950Z,24.80
2018-07-07T10:50:56.099Z,24.80
2018-07-07T10:53:24.287Z,24.90
2018-07-07T10:55:52.418Z,24.90
2018-07-07T10:58:20.569Z,24.80
2018-07-07T11:00:48.710Z,24.80
2018-07-07T11:03:16.892Z,24.90
2018-07-07T11:05:45.058Z,25.00
2018-07-07T11:08:13.213Z,24.90
2018-07-07T11:10:41.385Z,24.90
2018-07-07T11:13:09.821Z,24.90
2018-07-07T11:15:38.040Z,25.00
2018-07-07T11:18:06.210Z,25.00
2018-07-07T11:20:34.618Z,25.20
2018-07-07T11:23:02.754Z,25.30
2018-07-07T11:27:58.982Z,25.20
2018-07-07T11:30:27.131Z,25.20
2018-07-07T11:32:55.300Z,25.20
2018-07-07T11:35:23.466Z,25.20
2018-07-07T11:37:51.648Z,25.30
2018-07-07T11:40:19.789Z,25.30
2018-07-07T11:42:47.953Z,25.40
2018-07-07T11:45:16.097Z,25.50
2018-07-07T11:47:44.232Z,25.60
2018-07-07T11:50:12.501Z,25.60
2018-07-07T11:52:40.654Z,25.50
2018-07-07T11:55:08.958Z,25.50
2018-07-07T11:57:37.106Z,25.50
2018-07-07T12:00:05.353Z,25.40
2018-07-07T12:02:33.578Z,25.30
2018-07-07T12:05:01.719Z,25.00
2018-07-07T12:07:29.880Z,24.90
2018-07-07T12:09:58.027Z,24.90
2018-07-07T12:12:26.153Z,24.80
2018-07-07T12:14:54.378Z,24.80
2018-07-07T12:17:22.522Z,25.00
2018-07-07T12:19:50.726Z,25.10
2018-07-07T12:22:18.861Z,25.30
2018-07-07T12:24:47.046Z,25.40
2018-07-07T12:29:43.134Z,25.50
2018-07-07T12:32:11.275Z,25.50
2018-07-07T12:34:39.417Z,25.50
2018-07-07T12:37:07.826Z,25.50
2018-07-07T12:39:36.049Z,25.50
2018-07-07T12:42:04.204Z,25.50
2018-07-07T12:44:32.338Z,25.60
2018-07-07T12:47:00.507Z,25.70
2018-07-07T12:49:28.635Z,25.70
2018-07-07T12:51:56.797Z,25.70
2018-07-07T12:54:24.954Z,25.50
2018-07-07T12:56:53.449Z,25.50
2018-07-07T12:59:21.586Z,25.40
2018-07-07T13:04:17.746Z,25.50
2018-07-07T13:06:46.046Z,25.50
2018-07-07T13:09:14.318Z,25.40
2018-07-07T13:11:42.508Z,25.20
2018-07-07T13:14:10.683Z,25.30
2018-07-07T13:16:38.825Z,25.30
2018-07-07T13:19:06.971Z,25.30
2018-07-07T13:21:35.150Z,25.40
2018-07-07T13:24:03.270Z,25.40
2018-07-07T13:26:31.575Z,25.50
2018-07-07T13:29:00.189Z,25.60
2018-07-07T13:31:28.425Z,25.70
2018-07-07T13:33:58.455Z,25.50
2018-07-07T13:36:26.661Z,25.40
2018-07-07T13:38:54.905Z,25.30
2018-07-07T13:41:22.958Z,25.20
2018-07-07T13:43:51.101Z,25.20
2018-07-07T13:46:19.252Z,25.30
2018-07-07T13:48:48.094Z,25.30
2018-07-07T13:53:44.354Z,25.40
2018-07-07T13:56:13.024Z,25.50
2018-07-07T13:58:41.237Z,25.60
2018-07-07T14:01:09.410Z,25.70
2018-07-07T14:03:37.597Z,25.70
2018-07-07T14:06:05.752Z,25.90
2018-07-07T14:08:33.887Z,26.00
2018-07-07T14:11:02.198Z,26.00
2018-07-07T14:13:30.373Z,26.00
2018-07-07T14:15:58.557Z,26.00
2018-07-07T14:18:27.194Z,26.10
2018-07-07T14:20:55.354Z,26.20
2018-07-07T14:23:23.506Z,26.10
2018-07-07T14:25:51.842Z,26.00
2018-07-07T14:28:22.257Z,25.90
2018-07-07T14:30:50.393Z,25.80
2018-07-07T14:33:22.368Z,25.80
2018-07-07T14:35:50.554Z,25.90
2018-07-07T14:38:20.863Z,25.90
2018-07-07T14:41:00.525Z,25.70
2018-07-07T14:44:05.711Z,25.50
2018-07-07T14:46:34.826Z,25.50
2018-07-07T14:49:03.035Z,25.50
2018-07-07T14:51:31.165Z,25.30
2018-07-07T14:53:59.354Z,25.20
2018-07-07T14:56:28.242Z,25.10
2018-07-07T14:58:56.598Z,25.10
2018-07-07T15:01:24.869Z,25.10
2018-07-07T15:03:53.189Z,25.10
2018-07-07T15:06:21.354Z,25.20
2018-07-07T15:08:49.529Z,25.20
2018-07-07T15:11:17.706Z,25.20
2018-07-07T15:13:47.546Z,25.30
2018-07-07T15:16:15.705Z,25.30
2018-07-07T15:18:44.377Z,25.40
2018-07-07T15:21:12.589Z,25.40
2018-07-07T15:23:40.730Z,25.30
2018-07-07T15:26:08.909Z,25.20
2018-07-07T15:28:37.253Z,25.20
2018-07-07T15:31:05.558Z,25.20
2018-07-07T15:33:33.723Z,25.10
2018-07-07T15:36:01.866Z,25.00
2018-07-07T15:38:30.095Z,25.10
2018-07-07T15:40:58.233Z,25.20
2018-07-07T15:43:26.426Z,25.30
2018-07-07T15:45:54.590Z,25.50
2018-07-07T15:48:22.753Z,25.40
2018-07-07T15:50:50.909Z,25.30
2018-07-07T15:53:19.148Z,25.30
2018-07-07T15:55:47.306Z,25.30
2018-07-07T15:58:15.515Z,25.40
2018-07-07T16:00:43.682Z,25.50
2018-07-07T16:03:11.846Z,25.50
2018-07-07T16:05:40.002Z,25.50
2018-07-07T16:08:08.137Z,25.50
2018-07-07T16:10:36.344Z,25.40
2018-07-07T16:13:04.494Z,25.50
2018-07-07T16:15:32.726Z,25.50
2018-07-07T16:18:00.874Z,25.40
2018-07-07T16:20:29.081Z,25.20
2018-07-07T16:22:57.266Z,25.00
2018-07-07T16:27:53.337Z,25.00
2018-07-07T16:30:21.483Z,25.10
2018-07-07T16:32:49.710Z,25.20
2018-07-07T16:35:17.888Z,25.20
2018-07-07T16:37:46.035Z,25.00
2018-07-07T16:40:14.177Z,24.90
2018-07-07T16:42:42.553Z,24.80
2018-07-07T16:45:11.042Z,24.60
2018-07-07T16:47:39.194Z,24.60
2018-07-07T16:50:07.406Z,24.50
2018-07-07T16:52:35.592Z,24.50
2018-07-07T16:55:04.220Z,24.50
2018-07-07T16:57:32.709Z,24.50
2018-07-07T17:00:00.838Z,24.50
2018-07-07T17:02:29.274Z,24.50
2018-07-07T17:04:57.497Z,24.50
2018-07-07T17:07:25.637Z,24.40
2018-07-07T17:09:53.992Z,24.40
2018-07-07T17:12:22.945Z,24.30
2018-07-07T17:14:51.118Z,24.30
2018-07-07T17:17:19.306Z,24.30
2018-07-07T17:19:47.549Z,24.30
2018-07-07T17:22:15.818Z,24.30
2018-07-07T17:24:43.967Z,24.20
2018-07-07T17:27:12.137Z,24.20
2018-07-07T17:34:36.810Z,24.10
2018-07-07T17:37:05.754Z,24.10
2018-07-07T17:39:33.898Z,24.10
2018-07-07T17:42:02.079Z,24.10
2018-07-07T17:44:30.233Z,24.00
2018-07-07T17:46:59.269Z,24.00
2018-07-07T17:49:27.450Z,24.00
2018-07-07T17:51:55.781Z,23.90
2018-07-07T17:54:23.957Z,23.90
2018-07-07T17:56:52.250Z,23.90
2018-07-07T17:59:21.045Z,23.90
2018-07-07T18:01:49.226Z,23.90
2018-07-07T18:04:17.590Z,23.90
2018-07-07T18:06:45.753Z,23.90
2018-07-07T18:09:14.094Z,23.80
2018-07-07T18:11:42.482Z,23.80
2018-07-07T18:14:10.526Z,23.90
2018-07-07T18:16:38.674Z,23.80
2018-07-07T18:19:07.123Z,23.80
2018-07-07T18:21:35.243Z,23.80
2018-07-07T18:24:03.398Z,23.80
2018-07-07T18:26:31.570Z,23.80
2018-07-07T18:28:59.822Z,23.80
2018-07-07T18:31:28.161Z,23.80
2018-07-07T18:33:56.326Z,23.80
2018-07-07T18:36:24.486Z,23.80
2018-07-07T18:38:53.957Z,23.80
2018-07-07T18:41:22.114Z,23.80
2018-07-07T18:43:50.278Z,23.80
2018-07-07T18:46:18.556Z,23.60
2018-07-07T18:48:46.777Z,23.60
2018-07-07T18:51:14.887Z,23.70
2018-07-07T18:53:43.056Z,23.60
2018-07-07T18:56:11.213Z,23.60
2018-07-07T18:58:39.383Z,23.50
2018-07-07T19:01:07.527Z,23.50
2018-07-07T19:03:35.678Z,23.50
2018-07-07T19:06:03.824Z,23.50
2018-07-07T19:08:32.020Z,23.40
2018-07-07T19:11:00.185Z,23.50
2018-07-07T19:13:28.334Z,23.40
2018-07-07T19:15:56.587Z,23.30
2018-07-07T19:18:24.763Z,23.30
2018-07-07T19:20:58.468Z,23.30
2018-07-07T19:25:34.318Z,23.30
2018-07-07T19:28:02.470Z,23.30
2018-07-07T19:30:30.625Z,23.20
2018-07-07T19:33:04.306Z,23.10
2018-07-07T19:35:37.819Z,23.10
2018-07-07T19:38:06.014Z,23.10
2018-07-07T19:40:34.225Z,23.00
2018-07-07T19:43:02.501Z,23.00
2018-07-07T19:45:30.661Z,23.00
2018-07-07T19:47:58.913Z,22.90
2018-07-07T19:50:27.084Z,23.00
2018-07-07T19:52:55.341Z,22.90
2018-07-07T19:55:23.500Z,22.90
2018-07-07T19:57:51.645Z,22.80
2018-07-07T20:00:19.822Z,22.80
2018-07-07T20:02:48.011Z,22.70
2018-07-07T20:05:16.209Z,22.60
2018-07-07T20:07:44.426Z,22.50
2018-07-07T20:10:12.662Z,22.50
2018-07-07T20:12:40.839Z,22.50
2018-07-07T20:15:09.004Z,22.50
2018-07-07T20:18:08.338Z,22.50
2018-07-07T20:20:41.811Z,22.50
2018-07-07T20:23:11.468Z,22.40
2018-07-07T20:25:39.745Z,22.30
2018-07-07T20:28:13.462Z,22.20
2018-07-07T20:30:41.610Z,22.10
2018-07-07T20:33:09.781Z,22.00
2018-07-07T20:35:37.961Z,22.00
2018-07-07T20:40:34.054Z,21.90
2018-07-07T20:43:02.210Z,21.90
2018-07-07T20:45:30.489Z,21.80
2018-07-07T20:47:58.705Z,21.80
2018-07-07T20:50:26.845Z,21.80
2018-07-07T20:52:55.025Z,21.70
2018-07-07T20:55:23.181Z,21.70
2018-07-07T21:00:19.305Z,21.60
2018-07-07T21:02:47.464Z,21.60
2018-07-07T21:05:15.742Z,21.50
2018-07-07T21:07:43.902Z,21.40
2018-07-07T21:10:12.131Z,21.40
2018-07-07T21:12:40.314Z,21.40
2018-07-07T21:15:08.514Z,21.30
2018-07-07T21:17:36.672Z,21.30
2018-07-07T21:20:05.314Z,21.30
2018-07-07T21:22:33.567Z,21.20
2018-07-07T21:25:01.744Z,21.10
2018-07-07T21:27:29.894Z,21.10
2018-07-07T21:29:58.101Z,21.00
2018-07-07T21:32:26.422Z,21.00
2018-07-07T21:34:54.579Z,21.00
2018-07-07T21:37:22.755Z,21.10
2018-07-07T21:39:50.915Z,21.00
2018-07-07T21:42:19.166Z,21.00
2018-07-07T21:44:47.316Z,20.90
2018-07-07T21:47:15.517Z,20.80
2018-07-07T21:52:11.617Z,20.80
2018-07-07T21:54:39.770Z,20.70
2018-07-07T21:57:07.910Z,20.70
2018-07-07T21:59:36.042Z,20.60
2018-07-07T22:02:09.594Z,20.60
2018-07-07T22:05:47.037Z,20.50
2018-07-07T22:08:20.065Z,20.50
2018-07-07T22:10:48.618Z,20.40
2018-07-07T22:13:17.194Z,20.40
2018-07-07T22:15:45.347Z,20.30
2018-07-07T22:18:13.522Z,20.30
2018-07-07T22:20:47.370Z,20.20
2018-07-07T22:23:16.210Z,20.20
2018-07-07T22:25:44.381Z,20.00
2018-07-07T22:28:12.518Z,20.00
2018-07-07T22:30:40.649Z,20.00
2018-07-07T22:33:29.233Z,20.00
2018-07-07T22:36:02.821Z,19.90
2018-07-07T22:38:36.409Z,19.90
2018-07-07T22:41:04.527Z,19.80
2018-07-07T22:43:32.680Z,19.80
2018-07-07T22:46:01.262Z,19.70
2018-07-07T22:48:29.854Z,19.70
2018-07-07T22:50:57.994Z,19.70
2018-07-07T22:53:26.337Z,19.60
2018-07-07T22:55:54.465Z,19.50
2018-07-07T22:58:22.670Z,19.50
2018-07-07T23:00:50.890Z,19.50
2018-07-07T23:03:19.083Z,19.40
2018-07-07T23:05:47.214Z,19.30
2018-07-07T23:08:15.392Z,19.30
2018-07-07T23:10:43.498Z,19.30
2018-07-07T23:13:11.659Z,19.30
2018-07-07T23:15:40.373Z,19.30
2018-07-07T23:18:08.506Z,19.20
2018-07-07T23:20:36.638Z,19.20
2018-07-07T23:23:04.806Z,19.10
2018-07-07T23:25:33.031Z,19.00
2018-07-07T23:28:01.109Z,18.90
2018-07-07T23:30:29.238Z,18.90
2018-07-07T23:32:57.438Z,18.80
2018-07-07T23:35:25.897Z,18.80
2018-07-07T23:37:54.074Z,18.80
2018-07-07T23:40:22.214Z,18.80
2018-07-07T23:42:50.386Z,18.70
2018-07-07T23:45:18.574Z,18.70
2018-07-07T23:47:46.788Z,18.60
2018-07-07T23:50:14.913Z,18.50
2018-07-07T23:52:43.077Z,18.50
2018-07-07T23:55:11.318Z,18.50
2018-07-07T23:57:39.462Z,18.50
